Terminal Aerodrome Forecast
Issued by NWS Omaha/Valley, NE

Home | Current Version | Previous Version | Graphics & Text | Print | Product List | Glossary On
Versions: 1 2 3 4 5 6 7 8 9 10 11 12 13 14
000
FTUS43 KOAX 170520
TAFOFK
TAF
KOFK 170520Z 1706/1806 34015G20KT P6SM OVC018
     FM170600 34014KT P6SM OVC015
     FM170900 34011KT P6SM OVC015
      TEMPO 1711/1714 BKN025
     FM171500 36008KT P6SM SCT025 BKN040
     FM171800 16006KT P6SM BKN250=

USA.gov is the U.S. government's official web portal to all federal, state and local government web resources and services.